sensor_id;sensor_type;location;lat;lon;timestamp;P1;durP1;ratioP1;P2;durP2;ratioP2
19782;SDS011;10051;40.294;-3.754;2023-04-15T00:00:01;4.30;;;1.10;;
19782;SDS011;10051;40.294;-3.754;2023-04-15T00:02:27;5.05;;;1.00;;
19782;SDS011;10051;40.294;-3.754;2023-04-15T00:04:53;4.82;;;1.25;;
19782;SDS011;10051;40.294;-3.754;2023-04-15T00:07:18;4.38;;;1.10;;
19782;SDS011;10051;40.294;-3.754;2023-04-15T00:09:44;3.90;;;1.25;;
19782;SDS011;10051;40.294;-3.754;2023-04-15T00:12:10;7.18;;;1.20;;
19782;SDS011;10051;40.294;-3.754;2023-04-15T00:14:36;6.13;;;1.40;;
19782;SDS011;10051;40.294;-3.754;2023-04-15T00:17:02;5.40;;;1.08;;
19782;SDS011;10051;40.294;-3.754;2023-04-15T00:19:28;4.88;;;1.10;;
19782;SDS011;10051;40.294;-3.754;2023-04-15T00:21:55;5.60;;;1.05;;
19782;SDS011;10051;40.294;-3.754;2023-04-15T00:24:21;3.78;;;1.10;;
19782;SDS011;10051;40.294;-3.754;2023-04-15T00:26:47;3.75;;;0.98;;
19782;SDS011;10051;40.294;-3.754;2023-04-15T00:29:13;6.15;;;1.02;;
19782;SDS011;10051;40.294;-3.754;2023-04-15T00:31:39;3.97;;;1.23;;
19782;SDS011;10051;40.294;-3.754;2023-04-15T00:34:06;4.10;;;1.20;;
19782;SDS011;10051;40.294;-3.754;2023-04-15T00:36:31;3.70;;;1.15;;
19782;SDS011;10051;40.294;-3.754;2023-04-15T00:38:59;4.10;;;1.00;;
19782;SDS011;10051;40.294;-3.754;2023-04-15T00:41:24;2.00;;;0.85;;
19782;SDS011;10051;40.294;-3.754;2023-04-15T00:43:50;4.63;;;1.20;;
19782;SDS011;10051;40.294;-3.754;2023-04-15T00:46:16;3.17;;;1.08;;
19782;SDS011;10051;40.294;-3.754;2023-04-15T00:48:45;9.30;;;1.20;;
19782;SDS011;10051;40.294;-3.754;2023-04-15T00:51:12;4.00;;;1.05;;
19782;SDS011;10051;40.294;-3.754;2023-04-15T00:53:39;5.53;;;1.08;;
19782;SDS011;10051;40.294;-3.754;2023-04-15T00:56:05;3.65;;;1.23;;
19782;SDS011;10051;40.294;-3.754;2023-04-15T00:58:31;5.70;;;1.27;;
19782;SDS011;10051;40.294;-3.754;2023-04-15T01:00:56;8.10;;;1.30;;
19782;SDS011;10051;40.294;-3.754;2023-04-15T01:03:23;6.38;;;1.30;;
19782;SDS011;10051;40.294;-3.754;2023-04-15T01:05:49;4.68;;;1.23;;
19782;SDS011;10051;40.294;-3.754;2023-04-15T01:08:22;2.25;;;1.00;;
19782;SDS011;10051;40.294;-3.754;2023-04-15T01:11:00;6.28;;;0.98;;
19782;SDS011;10051;40.294;-3.754;2023-04-15T01:13:27;2.35;;;1.00;;
19782;SDS011;10051;40.294;-3.754;2023-04-15T01:15:54;4.50;;;1.10;;
19782;SDS011;10051;40.294;-3.754;2023-04-15T01:18:20;4.03;;;1.27;;
19782;SDS011;10051;40.294;-3.754;2023-04-15T01:20:47;3.83;;;1.20;;
19782;SDS011;10051;40.294;-3.754;2023-04-15T01:23:12;3.10;;;1.20;;
19782;SDS011;10051;40.294;-3.754;2023-04-15T01:25:38;3.00;;;1.23;;
19782;SDS011;10051;40.294;-3.754;2023-04-15T01:28:06;4.57;;;1.20;;
19782;SDS011;10051;40.294;-3.754;2023-04-15T01:30:33;3.75;;;1.17;;
19782;SDS011;10051;40.294;-3.754;2023-04-15T01:32:59;6.15;;;1.40;;
19782;SDS011;10051;40.294;-3.754;2023-04-15T01:35:25;4.60;;;1.20;;
19782;SDS011;10051;40.294;-3.754;2023-04-15T01:37:51;4.90;;;1.02;;
19782;SDS011;10051;40.294;-3.754;2023-04-15T01:40:18;4.25;;;1.20;;
19782;SDS011;10051;40.294;-3.754;2023-04-15T01:42:44;4.50;;;1.05;;
19782;SDS011;10051;40.294;-3.754;2023-04-15T01:45:10;4.88;;;1.17;;
19782;SDS011;10051;40.294;-3.754;2023-04-15T01:47:38;2.85;;;1.10;;
19782;SDS011;10051;40.294;-3.754;2023-04-15T01:50:03;4.85;;;1.00;;
19782;SDS011;10051;40.294;-3.754;2023-04-15T01:52:30;5.75;;;1.15;;
19782;SDS011;10051;40.294;-3.754;2023-04-15T01:54:56;5.25;;;1.00;;
19782;SDS011;10051;40.294;-3.754;2023-04-15T01:57:22;5.30;;;1.30;;
19782;SDS011;10051;40.294;-3.754;2023-04-15T01:59:47;3.20;;;1.10;;
19782;SDS011;10051;40.294;-3.754;2023-04-15T02:02:13;5.28;;;1.20;;
19782;SDS011;10051;40.294;-3.754;2023-04-15T02:04:39;5.07;;;1.20;;
19782;SDS011;10051;40.294;-3.754;2023-04-15T02:07:05;4.07;;;1.20;;
19782;SDS011;10051;40.294;-3.754;2023-04-15T02:09:31;4.97;;;1.20;;
19782;SDS011;10051;40.294;-3.754;2023-04-15T02:11:57;4.28;;;1.08;;
19782;SDS011;10051;40.294;-3.754;2023-04-15T02:14:22;4.35;;;1.15;;
19782;SDS011;10051;40.294;-3.754;2023-04-15T02:16:48;4.63;;;1.17;;
19782;SDS011;10051;40.294;-3.754;2023-04-15T02:19:13;6.45;;;1.25;;
19782;SDS011;10051;40.294;-3.754;2023-04-15T02:21:39;6.25;;;1.30;;
19782;SDS011;10051;40.294;-3.754;2023-04-15T02:24:06;5.25;;;1.20;;
19782;SDS011;10051;40.294;-3.754;2023-04-15T02:26:32;5.50;;;1.10;;
19782;SDS011;10051;40.294;-3.754;2023-04-15T02:28:57;4.93;;;1.35;;
19782;SDS011;10051;40.294;-3.754;2023-04-15T02:31:23;5.85;;;1.50;;
19782;SDS011;10051;40.294;-3.754;2023-04-15T02:33:50;6.22;;;1.10;;
19782;SDS011;10051;40.294;-3.754;2023-04-15T02:36:15;2.92;;;1.10;;
19782;SDS011;10051;40.294;-3.754;2023-04-15T02:38:41;3.63;;;1.20;;
19782;SDS011;10051;40.294;-3.754;2023-04-15T02:41:10;5.60;;;1.33;;
19782;SDS011;10051;40.294;-3.754;2023-04-15T02:43:36;3.35;;;1.15;;
19782;SDS011;10051;40.294;-3.754;2023-04-15T02:46:02;4.45;;;1.15;;
19782;SDS011;10051;40.294;-3.754;2023-04-15T02:48:28;3.38;;;1.23;;
19782;SDS011;10051;40.294;-3.754;2023-04-15T02:51:12;5.72;;;1.08;;
19782;SDS011;10051;40.294;-3.754;2023-04-15T02:53:38;3.47;;;1.20;;
19782;SDS011;10051;40.294;-3.754;2023-04-15T02:56:04;4.95;;;1.20;;
19782;SDS011;10051;40.294;-3.754;2023-04-15T02:58:30;3.45;;;1.20;;
19782;SDS011;10051;40.294;-3.754;2023-04-15T03:00:56;7.05;;;1.48;;
19782;SDS011;10051;40.294;-3.754;2023-04-15T03:03:21;4.85;;;1.13;;
19782;SDS011;10051;40.294;-3.754;2023-04-15T03:05:47;5.30;;;1.10;;
19782;SDS011;10051;40.294;-3.754;2023-04-15T03:08:12;6.38;;;1.20;;
19782;SDS011;10051;40.294;-3.754;2023-04-15T03:10:39;3.72;;;1.20;;
19782;SDS011;10051;40.294;-3.754;2023-04-15T03:13:04;6.90;;;1.33;;
19782;SDS011;10051;40.294;-3.754;2023-04-15T03:15:31;5.63;;;1.35;;
19782;SDS011;10051;40.294;-3.754;2023-04-15T03:17:57;7.28;;;1.40;;
19782;SDS011;10051;40.294;-3.754;2023-04-15T03:20:25;4.05;;;1.38;;
19782;SDS011;10051;40.294;-3.754;2023-04-15T03:22:51;4.43;;;1.25;;
19782;SDS011;10051;40.294;-3.754;2023-04-15T03:25:17;3.58;;;1.30;;
19782;SDS011;10051;40.294;-3.754;2023-04-15T03:27:42;3.60;;;1.20;;
19782;SDS011;10051;40.294;-3.754;2023-04-15T03:30:08;6.13;;;1.23;;
19782;SDS011;10051;40.294;-3.754;2023-04-15T03:32:34;3.20;;;1.17;;
19782;SDS011;10051;40.294;-3.754;2023-04-15T03:34:59;2.75;;;1.10;;
19782;SDS011;10051;40.294;-3.754;2023-04-15T03:37:25;3.60;;;1.45;;
19782;SDS011;10051;40.294;-3.754;2023-04-15T03:39:51;4.93;;;1.17;;
19782;SDS011;10051;40.294;-3.754;2023-04-15T03:42:17;3.03;;;1.27;;
19782;SDS011;10051;40.294;-3.754;2023-04-15T03:44:42;5.70;;;1.30;;
19782;SDS011;10051;40.294;-3.754;2023-04-15T03:47:08;4.63;;;1.48;;
19782;SDS011;10051;40.294;-3.754;2023-04-15T03:49:36;6.40;;;1.30;;
19782;SDS011;10051;40.294;-3.754;2023-04-15T03:52:01;2.90;;;1.25;;
19782;SDS011;10051;40.294;-3.754;2023-04-15T03:54:27;4.35;;;1.20;;
19782;SDS011;10051;40.294;-3.754;2023-04-15T03:56:52;2.60;;;1.13;;
19782;SDS011;10051;40.294;-3.754;2023-04-15T03:59:18;4.50;;;1.10;;
19782;SDS011;10051;40.294;-3.754;2023-04-15T04:01:43;3.72;;;1.20;;
19782;SDS011;10051;40.294;-3.754;2023-04-15T04:04:09;5.47;;;1.02;;
19782;SDS011;10051;40.294;-3.754;2023-04-15T04:06:35;6.47;;;1.38;;
19782;SDS011;10051;40.294;-3.754;2023-04-15T04:09:01;5.18;;;1.00;;
19782;SDS011;10051;40.294;-3.754;2023-04-15T04:11:26;6.45;;;1.23;;
19782;SDS011;10051;40.294;-3.754;2023-04-15T04:13:52;3.38;;;1.10;;
19782;SDS011;10051;40.294;-3.754;2023-04-15T04:16:18;2.42;;;1.00;;
19782;SDS011;10051;40.294;-3.754;2023-04-15T04:18:44;11.35;;;1.20;;
19782;SDS011;10051;40.294;-3.754;2023-04-15T04:21:09;3.63;;;1.10;;
19782;SDS011;10051;40.294;-3.754;2023-04-15T04:23:35;4.28;;;1.00;;
19782;SDS011;10051;40.294;-3.754;2023-04-15T04:26:01;4.90;;;1.40;;
19782;SDS011;10051;40.294;-3.754;2023-04-15T04:28:27;4.15;;;1.30;;
19782;SDS011;10051;40.294;-3.754;2023-04-15T04:30:52;2.92;;;1.00;;
19782;SDS011;10051;40.294;-3.754;2023-04-15T04:33:18;3.45;;;1.00;;
19782;SDS011;10051;40.294;-3.754;2023-04-15T04:35:43;3.92;;;1.30;;
19782;SDS011;10051;40.294;-3.754;2023-04-15T04:38:09;3.35;;;1.13;;
19782;SDS011;10051;40.294;-3.754;2023-04-15T04:40:35;3.78;;;1.10;;
19782;SDS011;10051;40.294;-3.754;2023-04-15T04:43:00;5.90;;;1.60;;
19782;SDS011;10051;40.294;-3.754;2023-04-15T04:45:26;2.70;;;1.05;;
19782;SDS011;10051;40.294;-3.754;2023-04-15T04:47:52;3.53;;;1.30;;
19782;SDS011;10051;40.294;-3.754;2023-04-15T04:50:17;3.05;;;1.10;;
19782;SDS011;10051;40.294;-3.754;2023-04-15T04:52:43;4.72;;;1.17;;
19782;SDS011;10051;40.294;-3.754;2023-04-15T04:55:09;2.88;;;1.00;;
19782;SDS011;10051;40.294;-3.754;2023-04-15T04:57:34;3.78;;;1.30;;
19782;SDS011;10051;40.294;-3.754;2023-04-15T05:00:00;4.50;;;1.25;;
19782;SDS011;10051;40.294;-3.754;2023-04-15T05:02:28;5.47;;;1.10;;
19782;SDS011;10051;40.294;-3.754;2023-04-15T05:04:54;3.83;;;1.13;;
19782;SDS011;10051;40.294;-3.754;2023-04-15T05:07:19;4.22;;;1.30;;
19782;SDS011;10051;40.294;-3.754;2023-04-15T05:09:45;6.57;;;1.23;;
19782;SDS011;10051;40.294;-3.754;2023-04-15T05:12:11;3.88;;;1.10;;
19782;SDS011;10051;40.294;-3.754;2023-04-15T05:14:42;5.25;;;1.10;;
19782;SDS011;10051;40.294;-3.754;2023-04-15T05:17:08;2.63;;;1.23;;
19782;SDS011;10051;40.294;-3.754;2023-04-15T05:19:33;3.10;;;1.10;;
19782;SDS011;10051;40.294;-3.754;2023-04-15T05:21:59;4.47;;;1.08;;
19782;SDS011;10051;40.294;-3.754;2023-04-15T05:24:25;6.05;;;1.30;;
19782;SDS011;10051;40.294;-3.754;2023-04-15T05:26:50;3.17;;;1.30;;
19782;SDS011;10051;40.294;-3.754;2023-04-15T05:29:16;5.25;;;1.15;;
19782;SDS011;10051;40.294;-3.754;2023-04-15T05:31:41;1.98;;;1.10;;
19782;SDS011;10051;40.294;-3.754;2023-04-15T05:34:07;3.63;;;1.25;;
19782;SDS011;10051;40.294;-3.754;2023-04-15T05:36:33;3.80;;;1.27;;
19782;SDS011;10051;40.294;-3.754;2023-04-15T05:38:58;4.38;;;1.50;;
19782;SDS011;10051;40.294;-3.754;2023-04-15T05:41:24;3.97;;;1.20;;
19782;SDS011;10051;40.294;-3.754;2023-04-15T05:43:50;4.82;;;1.50;;
19782;SDS011;10051;40.294;-3.754;2023-04-15T05:46:15;4.05;;;1.23;;
19782;SDS011;10051;40.294;-3.754;2023-04-15T05:48:41;5.25;;;1.30;;
19782;SDS011;10051;40.294;-3.754;2023-04-15T05:51:06;5.53;;;1.25;;
19782;SDS011;10051;40.294;-3.754;2023-04-15T05:53:32;5.18;;;1.80;;
19782;SDS011;10051;40.294;-3.754;2023-04-15T05:55:57;7.70;;;2.65;;
19782;SDS011;10051;40.294;-3.754;2023-04-15T05:58:23;9.40;;;3.60;;
19782;SDS011;10051;40.294;-3.754;2023-04-15T06:00:48;11.93;;;4.30;;
19782;SDS011;10051;40.294;-3.754;2023-04-15T06:03:14;9.85;;;3.45;;
19782;SDS011;10051;40.294;-3.754;2023-04-15T06:05:40;7.68;;;2.90;;
19782;SDS011;10051;40.294;-3.754;2023-04-15T06:08:06;8.48;;;2.38;;
19782;SDS011;10051;40.294;-3.754;2023-04-15T06:10:33;6.95;;;2.20;;
19782;SDS011;10051;40.294;-3.754;2023-04-15T06:13:00;5.25;;;1.88;;
19782;SDS011;10051;40.294;-3.754;2023-04-15T06:15:29;4.40;;;1.58;;
19782;SDS011;10051;40.294;-3.754;2023-04-15T06:17:55;5.80;;;1.50;;
19782;SDS011;10051;40.294;-3.754;2023-04-15T06:20:20;5.88;;;1.33;;
19782;SDS011;10051;40.294;-3.754;2023-04-15T06:22:46;5.32;;;1.40;;
19782;SDS011;10051;40.294;-3.754;2023-04-15T06:25:11;6.30;;;1.38;;
19782;SDS011;10051;40.294;-3.754;2023-04-15T06:27:38;5.60;;;1.50;;
19782;SDS011;10051;40.294;-3.754;2023-04-15T06:30:04;3.95;;;1.42;;
19782;SDS011;10051;40.294;-3.754;2023-04-15T06:32:31;3.78;;;1.55;;
19782;SDS011;10051;40.294;-3.754;2023-04-15T06:34:56;5.55;;;1.40;;
19782;SDS011;10051;40.294;-3.754;2023-04-15T06:37:22;3.08;;;1.38;;
19782;SDS011;10051;40.294;-3.754;2023-04-15T06:39:48;5.20;;;1.40;;
19782;SDS011;10051;40.294;-3.754;2023-04-15T06:42:13;3.78;;;1.30;;
19782;SDS011;10051;40.294;-3.754;2023-04-15T06:44:39;8.65;;;1.95;;
19782;SDS011;10051;40.294;-3.754;2023-04-15T06:47:06;3.90;;;1.17;;
19782;SDS011;10051;40.294;-3.754;2023-04-15T06:49:33;8.32;;;1.30;;
19782;SDS011;10051;40.294;-3.754;2023-04-15T06:51:59;5.97;;;1.30;;
19782;SDS011;10051;40.294;-3.754;2023-04-15T06:54:24;5.97;;;1.23;;
19782;SDS011;10051;40.294;-3.754;2023-04-15T06:56:51;6.93;;;1.50;;
19782;SDS011;10051;40.294;-3.754;2023-04-15T06:59:16;4.03;;;1.25;;
19782;SDS011;10051;40.294;-3.754;2023-04-15T07:01:43;4.18;;;1.10;;
19782;SDS011;10051;40.294;-3.754;2023-04-15T07:04:08;4.18;;;1.33;;
19782;SDS011;10051;40.294;-3.754;2023-04-15T07:06:35;3.00;;;1.27;;
19782;SDS011;10051;40.294;-3.754;2023-04-15T07:09:01;2.92;;;1.13;;
19782;SDS011;10051;40.294;-3.754;2023-04-15T07:11:28;4.03;;;1.25;;
19782;SDS011;10051;40.294;-3.754;2023-04-15T07:13:54;5.07;;;1.30;;
19782;SDS011;10051;40.294;-3.754;2023-04-15T07:16:20;3.30;;;1.00;;
19782;SDS011;10051;40.294;-3.754;2023-04-15T07:18:46;7.32;;;1.30;;
19782;SDS011;10051;40.294;-3.754;2023-04-15T07:21:12;5.50;;;1.15;;
19782;SDS011;10051;40.294;-3.754;2023-04-15T07:23:37;4.25;;;1.05;;
19782;SDS011;10051;40.294;-3.754;2023-04-15T07:26:03;3.80;;;1.00;;
19782;SDS011;10051;40.294;-3.754;2023-04-15T07:28:28;4.85;;;1.20;;
19782;SDS011;10051;40.294;-3.754;2023-04-15T07:30:54;2.80;;;1.27;;
19782;SDS011;10051;40.294;-3.754;2023-04-15T07:33:21;4.60;;;1.10;;
19782;SDS011;10051;40.294;-3.754;2023-04-15T07:35:47;3.05;;;1.30;;
19782;SDS011;10051;40.294;-3.754;2023-04-15T07:38:14;2.95;;;1.00;;
19782;SDS011;10051;40.294;-3.754;2023-04-15T07:40:39;7.70;;;1.42;;
19782;SDS011;10051;40.294;-3.754;2023-04-15T07:43:06;4.15;;;1.10;;
19782;SDS011;10051;40.294;-3.754;2023-04-15T07:45:32;3.17;;;1.20;;
19782;SDS011;10051;40.294;-3.754;2023-04-15T07:47:59;4.65;;;1.17;;
19782;SDS011;10051;40.294;-3.754;2023-04-15T07:50:25;3.47;;;1.30;;
19782;SDS011;10051;40.294;-3.754;2023-04-15T07:52:51;6.88;;;1.30;;
19782;SDS011;10051;40.294;-3.754;2023-04-15T07:55:17;5.07;;;1.38;;
19782;SDS011;10051;40.294;-3.754;2023-04-15T07:57:45;3.25;;;1.50;;
19782;SDS011;10051;40.294;-3.754;2023-04-15T08:00:11;4.57;;;1.42;;
19782;SDS011;10051;40.294;-3.754;2023-04-15T08:02:38;6.75;;;1.20;;
19782;SDS011;10051;40.294;-3.754;2023-04-15T08:05:04;5.13;;;1.48;;
19782;SDS011;10051;40.294;-3.754;2023-04-15T08:07:31;3.60;;;1.00;;
19782;SDS011;10051;40.294;-3.754;2023-04-15T08:09:57;6.43;;;1.63;;
19782;SDS011;10051;40.294;-3.754;2023-04-15T08:12:22;4.82;;;1.20;;
19782;SDS011;10051;40.294;-3.754;2023-04-15T08:14:49;4.55;;;1.20;;
19782;SDS011;10051;40.294;-3.754;2023-04-15T08:17:15;4.05;;;1.30;;
19782;SDS011;10051;40.294;-3.754;2023-04-15T08:19:40;4.35;;;1.27;;
19782;SDS011;10051;40.294;-3.754;2023-04-15T08:22:06;2.95;;;1.00;;
19782;SDS011;10051;40.294;-3.754;2023-04-15T08:24:32;5.10;;;1.27;;
19782;SDS011;10051;40.294;-3.754;2023-04-15T08:26:58;8.27;;;1.40;;
19782;SDS011;10051;40.294;-3.754;2023-04-15T08:29:24;4.57;;;1.30;;
19782;SDS011;10051;40.294;-3.754;2023-04-15T08:31:49;4.15;;;1.30;;
19782;SDS011;10051;40.294;-3.754;2023-04-15T08:34:15;5.25;;;1.10;;
19782;SDS011;10051;40.294;-3.754;2023-04-15T08:36:42;4.22;;;1.10;;
19782;SDS011;10051;40.294;-3.754;2023-04-15T08:39:07;7.68;;;1.17;;
19782;SDS011;10051;40.294;-3.754;2023-04-15T08:41:33;4.38;;;1.40;;
19782;SDS011;10051;40.294;-3.754;2023-04-15T08:44:05;3.80;;;1.20;;
19782;SDS011;10051;40.294;-3.754;2023-04-15T08:46:31;6.78;;;1.05;;
19782;SDS011;10051;40.294;-3.754;2023-04-15T08:49:02;3.22;;;1.15;;
19782;SDS011;10051;40.294;-3.754;2023-04-15T08:51:29;3.78;;;1.20;;
19782;SDS011;10051;40.294;-3.754;2023-04-15T08:53:56;4.57;;;1.00;;
19782;SDS011;10051;40.294;-3.754;2023-04-15T08:56:24;4.13;;;1.27;;
19782;SDS011;10051;40.294;-3.754;2023-04-15T08:58:53;4.47;;;1.00;;
19782;SDS011;10051;40.294;-3.754;2023-04-15T09:01:19;6.38;;;1.27;;
19782;SDS011;10051;40.294;-3.754;2023-04-15T09:03:46;3.45;;;1.10;;
19782;SDS011;10051;40.294;-3.754;2023-04-15T09:06:15;6.05;;;1.20;;
19782;SDS011;10051;40.294;-3.754;2023-04-15T09:08:41;3.00;;;1.00;;
19782;SDS011;10051;40.294;-3.754;2023-04-15T09:11:06;7.22;;;1.25;;
19782;SDS011;10051;40.294;-3.754;2023-04-15T09:13:32;5.88;;;1.20;;
19782;SDS011;10051;40.294;-3.754;2023-04-15T09:16:00;3.60;;;1.17;;
19782;SDS011;10051;40.294;-3.754;2023-04-15T09:18:31;4.68;;;1.30;;
19782;SDS011;10051;40.294;-3.754;2023-04-15T09:23:35;3.17;;;1.00;;
19782;SDS011;10051;40.294;-3.754;2023-04-15T09:26:02;3.65;;;1.35;;
19782;SDS011;10051;40.294;-3.754;2023-04-15T09:28:28;3.35;;;1.20;;
19782;SDS011;10051;40.294;-3.754;2023-04-15T09:30:55;3.83;;;1.10;;
19782;SDS011;10051;40.294;-3.754;2023-04-15T09:33:22;4.30;;;1.30;;
19782;SDS011;10051;40.294;-3.754;2023-04-15T09:36:01;3.95;;;1.17;;
19782;SDS011;10051;40.294;-3.754;2023-04-15T09:38:29;4.68;;;1.20;;
19782;SDS011;10051;40.294;-3.754;2023-04-15T09:40:55;3.30;;;1.17;;
19782;SDS011;10051;40.294;-3.754;2023-04-15T09:43:22;8.52;;;1.40;;
19782;SDS011;10051;40.294;-3.754;2023-04-15T09:46:04;5.18;;;1.20;;
19782;SDS011;10051;40.294;-3.754;2023-04-15T09:48:30;4.15;;;1.30;;
19782;SDS011;10051;40.294;-3.754;2023-04-15T09:50:58;5.15;;;1.30;;
19782;SDS011;10051;40.294;-3.754;2023-04-15T09:53:25;3.50;;;1.10;;
19782;SDS011;10051;40.294;-3.754;2023-04-15T09:55:53;7.93;;;1.60;;
19782;SDS011;10051;40.294;-3.754;2023-04-15T09:58:23;5.90;;;1.30;;
19782;SDS011;10051;40.294;-3.754;2023-04-15T10:00:51;7.70;;;1.40;;
19782;SDS011;10051;40.294;-3.754;2023-04-15T10:03:23;3.28;;;1.30;;
19782;SDS011;10051;40.294;-3.754;2023-04-15T10:05:54;8.90;;;1.45;;
19782;SDS011;10051;40.294;-3.754;2023-04-15T10:08:22;3.90;;;1.40;;
19782;SDS011;10051;40.294;-3.754;2023-04-15T10:10:49;5.55;;;1.30;;
19782;SDS011;10051;40.294;-3.754;2023-04-15T10:13:20;3.53;;;1.20;;
19782;SDS011;10051;40.294;-3.754;2023-04-15T10:15:55;6.10;;;1.20;;
19782;SDS011;10051;40.294;-3.754;2023-04-15T10:18:24;5.25;;;1.20;;
19782;SDS011;10051;40.294;-3.754;2023-04-15T10:20:51;3.20;;;1.30;;
19782;SDS011;10051;40.294;-3.754;2023-04-15T10:23:19;5.85;;;1.50;;
19782;SDS011;10051;40.294;-3.754;2023-04-15T10:25:45;5.55;;;1.80;;
19782;SDS011;10051;40.294;-3.754;2023-04-15T10:28:11;6.50;;;1.83;;
19782;SDS011;10051;40.294;-3.754;2023-04-15T10:30:41;5.00;;;1.52;;
19782;SDS011;10051;40.294;-3.754;2023-04-15T10:33:07;3.97;;;1.27;;
19782;SDS011;10051;40.294;-3.754;2023-04-15T10:35:34;5.53;;;1.50;;
19782;SDS011;10051;40.294;-3.754;2023-04-15T10:38:01;3.60;;;1.50;;
19782;SDS011;10051;40.294;-3.754;2023-04-15T10:40:27;4.63;;;1.50;;
19782;SDS011;10051;40.294;-3.754;2023-04-15T10:42:58;3.67;;;1.40;;
19782;SDS011;10051;40.294;-3.754;2023-04-15T10:45:31;5.93;;;1.50;;
19782;SDS011;10051;40.294;-3.754;2023-04-15T10:48:00;3.60;;;1.42;;
19782;SDS011;10051;40.294;-3.754;2023-04-15T10:50:27;5.50;;;1.73;;
19782;SDS011;10051;40.294;-3.754;2023-04-15T10:52:55;4.70;;;1.90;;
19782;SDS011;10051;40.294;-3.754;2023-04-15T10:55:22;8.57;;;1.90;;
19782;SDS011;10051;40.294;-3.754;2023-04-15T10:57:54;6.47;;;1.80;;
19782;SDS011;10051;40.294;-3.754;2023-04-15T11:00:28;5.80;;;1.92;;
19782;SDS011;10051;40.294;-3.754;2023-04-15T11:02:59;6.85;;;1.88;;
19782;SDS011;10051;40.294;-3.754;2023-04-15T11:08:06;6.50;;;2.63;;
19782;SDS011;10051;40.294;-3.754;2023-04-15T11:13:03;4.30;;;1.80;;
19782;SDS011;10051;40.294;-3.754;2023-04-15T11:15:38;6.53;;;1.92;;
19782;SDS011;10051;40.294;-3.754;2023-04-15T11:20:43;6.00;;;2.05;;
19782;SDS011;10051;40.294;-3.754;2023-04-15T11:23:10;5.72;;;2.00;;
19782;SDS011;10051;40.294;-3.754;2023-04-15T11:25:36;7.22;;;2.00;;
19782;SDS011;10051;40.294;-3.754;2023-04-15T11:28:02;5.10;;;2.00;;
19782;SDS011;10051;40.294;-3.754;2023-04-15T11:30:30;5.15;;;2.33;;
19782;SDS011;10051;40.294;-3.754;2023-04-15T11:32:58;4.47;;;1.95;;
19782;SDS011;10051;40.294;-3.754;2023-04-15T11:35:25;4.45;;;1.60;;
19782;SDS011;10051;40.294;-3.754;2023-04-15T11:37:51;3.95;;;1.63;;
19782;SDS011;10051;40.294;-3.754;2023-04-15T11:40:21;3.95;;;1.90;;
19782;SDS011;10051;40.294;-3.754;2023-04-15T11:45:32;4.13;;;1.58;;
19782;SDS011;10051;40.294;-3.754;2023-04-15T11:48:16;3.33;;;1.50;;
19782;SDS011;10051;40.294;-3.754;2023-04-15T11:50:42;5.10;;;1.50;;
19782;SDS011;10051;40.294;-3.754;2023-04-15T11:53:08;3.22;;;1.48;;
19782;SDS011;10051;40.294;-3.754;2023-04-15T11:55:45;6.38;;;1.50;;
19782;SDS011;10051;40.294;-3.754;2023-04-15T11:58:13;5.68;;;1.55;;
19782;SDS011;10051;40.294;-3.754;2023-04-15T12:00:58;2.92;;;1.50;;
19782;SDS011;10051;40.294;-3.754;2023-04-15T12:03:26;6.15;;;1.55;;
19782;SDS011;10051;40.294;-3.754;2023-04-15T12:16:49;4.00;;;1.45;;
19782;SDS011;10051;40.294;-3.754;2023-04-15T12:19:25;3.88;;;1.40;;
19782;SDS011;10051;40.294;-3.754;2023-04-15T12:21:54;6.15;;;1.27;;
19782;SDS011;10051;40.294;-3.754;2023-04-15T12:24:23;2.78;;;1.30;;
19782;SDS011;10051;40.294;-3.754;2023-04-15T12:26:53;2.97;;;1.30;;
19782;SDS011;10051;40.294;-3.754;2023-04-15T12:29:25;8.35;;;1.55;;
19782;SDS011;10051;40.294;-3.754;2023-04-15T12:31:53;3.53;;;1.20;;
19782;SDS011;10051;40.294;-3.754;2023-04-15T12:37:06;2.78;;;1.45;;
19782;SDS011;10051;40.294;-3.754;2023-04-15T12:39:39;6.32;;;1.40;;
19782;SDS011;10051;40.294;-3.754;2023-04-15T12:42:09;3.33;;;1.33;;
19782;SDS011;10051;40.294;-3.754;2023-04-15T12:44:36;6.10;;;1.52;;
19782;SDS011;10051;40.294;-3.754;2023-04-15T12:47:03;5.90;;;1.90;;
19782;SDS011;10051;40.294;-3.754;2023-04-15T12:49:29;3.80;;;1.38;;
19782;SDS011;10051;40.294;-3.754;2023-04-15T12:51:57;5.72;;;1.70;;
19782;SDS011;10051;40.294;-3.754;2023-04-15T12:54:27;8.20;;;1.67;;
19782;SDS011;10051;40.294;-3.754;2023-04-15T12:56:53;5.10;;;1.70;;
19782;SDS011;10051;40.294;-3.754;2023-04-15T12:59:19;1.95;;;1.33;;
19782;SDS011;10051;40.294;-3.754;2023-04-15T13:01:49;5.90;;;1.50;;
19782;SDS011;10051;40.294;-3.754;2023-04-15T13:04:16;5.18;;;1.40;;
19782;SDS011;10051;40.294;-3.754;2023-04-15T13:06:41;3.17;;;1.20;;
19782;SDS011;10051;40.294;-3.754;2023-04-15T13:09:08;3.83;;;1.10;;
19782;SDS011;10051;40.294;-3.754;2023-04-15T13:11:33;5.28;;;1.05;;
19782;SDS011;10051;40.294;-3.754;2023-04-15T13:14:00;3.05;;;1.30;;
19782;SDS011;10051;40.294;-3.754;2023-04-15T13:16:30;4.63;;;1.20;;
19782;SDS011;10051;40.294;-3.754;2023-04-15T13:18:59;3.75;;;1.30;;
19782;SDS011;10051;40.294;-3.754;2023-04-15T13:21:26;3.58;;;1.25;;
19782;SDS011;10051;40.294;-3.754;2023-04-15T13:23:52;2.75;;;1.13;;
19782;SDS011;10051;40.294;-3.754;2023-04-15T13:26:18;2.30;;;1.20;;
19782;SDS011;10051;40.294;-3.754;2023-04-15T13:28:44;4.07;;;1.20;;
19782;SDS011;10051;40.294;-3.754;2023-04-15T13:31:10;8.00;;;1.52;;
19782;SDS011;10051;40.294;-3.754;2023-04-15T13:33:36;3.58;;;1.20;;
19782;SDS011;10051;40.294;-3.754;2023-04-15T13:36:02;2.50;;;1.10;;
19782;SDS011;10051;40.294;-3.754;2023-04-15T13:38:28;5.07;;;1.60;;
19782;SDS011;10051;40.294;-3.754;2023-04-15T13:40:54;5.70;;;1.52;;
19782;SDS011;10051;40.294;-3.754;2023-04-15T13:43:19;3.80;;;1.33;;
19782;SDS011;10051;40.294;-3.754;2023-04-15T13:45:45;3.50;;;1.30;;
19782;SDS011;10051;40.294;-3.754;2023-04-15T13:48:11;5.25;;;1.20;;
19782;SDS011;10051;40.294;-3.754;2023-04-15T13:50:37;2.80;;;1.15;;
19782;SDS011;10051;40.294;-3.754;2023-04-15T13:53:02;30.00;;;1.52;;
19782;SDS011;10051;40.294;-3.754;2023-04-15T13:55:31;3.67;;;1.20;;
19782;SDS011;10051;40.294;-3.754;2023-04-15T13:57:59;4.85;;;1.40;;
19782;SDS011;10051;40.294;-3.754;2023-04-15T14:00:24;3.25;;;1.25;;
19782;SDS011;10051;40.294;-3.754;2023-04-15T14:02:52;8.23;;;3.53;;
19782;SDS011;10051;40.294;-3.754;2023-04-15T14:05:18;8.02;;;4.00;;
19782;SDS011;10051;40.294;-3.754;2023-04-15T14:07:44;6.95;;;1.90;;
19782;SDS011;10051;40.294;-3.754;2023-04-15T14:10:10;3.45;;;1.23;;
19782;SDS011;10051;40.294;-3.754;2023-04-15T14:12:35;4.68;;;2.10;;
19782;SDS011;10051;40.294;-3.754;2023-04-15T14:15:01;5.05;;;1.60;;
19782;SDS011;10051;40.294;-3.754;2023-04-15T14:17:26;6.05;;;1.40;;
19782;SDS011;10051;40.294;-3.754;2023-04-15T14:19:52;5.18;;;1.30;;
19782;SDS011;10051;40.294;-3.754;2023-04-15T14:22:18;3.90;;;1.50;;
19782;SDS011;10051;40.294;-3.754;2023-04-15T14:24:44;4.45;;;1.40;;
19782;SDS011;10051;40.294;-3.754;2023-04-15T14:27:09;3.78;;;1.30;;
19782;SDS011;10051;40.294;-3.754;2023-04-15T14:29:36;6.72;;;1.50;;
19782;SDS011;10051;40.294;-3.754;2023-04-15T14:32:02;3.72;;;1.20;;
19782;SDS011;10051;40.294;-3.754;2023-04-15T14:34:28;4.25;;;1.40;;
19782;SDS011;10051;40.294;-3.754;2023-04-15T14:36:53;8.27;;;3.05;;
19782;SDS011;10051;40.294;-3.754;2023-04-15T14:39:19;4.43;;;1.50;;
19782;SDS011;10051;40.294;-3.754;2023-04-15T14:41:45;3.63;;;1.40;;
19782;SDS011;10051;40.294;-3.754;2023-04-15T14:44:11;3.88;;;1.20;;
19782;SDS011;10051;40.294;-3.754;2023-04-15T14:46:37;4.75;;;1.30;;
19782;SDS011;10051;40.294;-3.754;2023-04-15T14:49:03;3.10;;;1.42;;
19782;SDS011;10051;40.294;-3.754;2023-04-15T14:51:32;3.90;;;1.48;;
19782;SDS011;10051;40.294;-3.754;2023-04-15T14:53:58;3.92;;;1.40;;
19782;SDS011;10051;40.294;-3.754;2023-04-15T14:56:23;4.18;;;1.50;;